indierocks.mx alexa rank chart, indierocks.mx alexa rank daily changes

indierocks.mx alexa rank chart, indierocks.mx alexa rank daily changes

indierocks.mx
Actual rank:
187 842

RANK HISTORY

Date Rank Diff
2018/02/24 187 842 -105 211
2018/02/23 293 053 -105 356
2018/02/22 398 409 +229 019
2018/02/21 169 390 -92 998
2018/02/20 262 388 +47 697
2018/02/18 214 691 -38 217
2018/02/17 252 908 -192 299
2018/02/16 445 207 +163 893
2018/02/15 281 314 +93 282
2018/02/14 188 032 -86 534
2018/02/13 274 566 -89 366
2018/02/11 363 932 +161 603
2018/02/10 202 329 -151 928
2018/02/09 354 257 -78 935
2018/02/08 433 192 +67 119
2018/02/07 366 073 -595 087
2018/02/06 961 160 +514 641
2018/02/05 446 519 -36 138
2018/02/04 482 657 -73 618
2018/02/03 556 275 +266 760
2018/02/02 289 515 +77 829
2018/02/01 211 686 -143 451
2018/01/31 355 137 +52 144
2018/01/30 302 993 +3 066
2018/01/29 299 927 -10 803
2018/01/28 310 730 +6 622
2018/01/27 304 108 -5 499
2018/01/26 309 607 -13 453
2018/01/25 323 060 -5 715
2018/01/24 328 775 +1 882
2018/01/23 326 893 -22 142
2018/01/22 349 035 +4 654
2018/01/21 344 381 +10 395
2018/01/20 333 986 -2 157
2018/01/19 336 143 -13 561
2018/01/18 349 704 -13 210
2018/01/17 362 914 -1 588
2018/01/16 364 502 +15 262
2018/01/15 349 240 +7 664
2018/01/14 341 576 -608
2018/01/13 342 184 +2 139
2018/01/12 340 045 -9 074
2018/01/11 349 119 -3 520
2018/01/10 352 639 +15 318
2018/01/09 337 321 +14 081
2018/01/08 323 240 +2 791
2018/01/07 320 449 -11 130
2018/01/06 331 579 -2 979
2018/01/05 334 558 -11 578
2018/01/04 346 136 +16 453
2018/01/03 329 683 +3 268
2018/01/02 326 415 +13 118
2018/01/01 313 297 +4 232
2017/12/31 309 065 +3 896
2017/12/30 305 169 -1 826
2017/12/29 306 995 +5 727
2017/12/28 301 268 -6 192
2017/12/27 307 460 +8 724
2017/12/26 298 736

WIDGET FOR YOUR SITE

DOMAINS WITH THE NEAREST RANK

Domain Rank
apeamcet2018.in 187 837
greatlearning.in 187 838
speedposttrackinginfo.in 187 839
pet-centar.hr 187 840
yellowpages.com.sg 187 841
indierocks.mx 187 842
business-cash.biz 187 843
sochinenienatemu.com 187 844
niknews.mk.ua 187 845
salleurl.edu 187 846
hachette-livre.fr 187 847

DOMAINS WITH THE NEAREST RANK BY TLD .mx

Domain Rank
elle.mx 186 367
politico.mx 186 386
abcnoticias.mx 187 699
carrerasenlinea.mx 187 700
saludpublica.mx 187 776
indierocks.mx 187 842
abogacia.mx 189 370
colbachenlinea.mx 189 371
quobit.mx 189 629
diariopresente.mx 190 134
gamedots.mx 190 820